Time;durP1;ratioP1;P1;durP2;ratioP2;P2;SDS_P1;SDS_P2;PMS_P1;PMS_P2;Temp;Humidity;BMP_temperature;BMP_pressure;BME280_temperature;BME280_humidity;BME280_pressure;Samples;Min_cycle;Max_cycle;Signal;HPM_P1;HPM_P2
2022/06/10 00:00:28;;;;;;;3.33;1.30;;;;;;;;;;5195014;27;20222;-14
2022/06/10 00:02:55;;;;;;;3.42;0.70;;;;;;;;;;5195194;27;20217;-15
2022/06/10 00:05:23;;;;;;;4.78;1.08;;;;;;;;;;5198984;27;20699;-15
2022/06/10 00:07:51;;;;;;;2.78;1.17;;;;;;;;;;5212442;27;20226;-14
2022/06/10 00:10:19;;;;;;;2.72;1.10;;;;;;;;;;5198104;27;20228;-14
2022/06/10 00:12:48;;;;;;;1.73;1.08;;;;;;;;;;5201762;27;20237;-12
2022/06/10 00:15:16;;;;;;;2.72;1.10;;;;;;;;;;5194921;27;20229;-15
2022/06/10 00:17:43;;;;;;;3.60;1.25;;;;;;;;;;5194854;27;20222;-14
2022/06/10 00:20:12;;;;;;;3.53;1.02;;;;;;;;;;5205042;27;20232;-15
2022/06/10 00:22:39;;;;;;;2.65;1.17;;;;;;;;;;5199921;27;20704;-14
2022/06/10 00:25:07;;;;;;;1.77;1.05;;;;;;;;;;5216509;27;20233;-15
2022/06/10 00:27:34;;;;;;;2.53;1.00;;;;;;;;;;5202632;27;20233;-14
2022/06/10 00:30:03;;;;;;;5.05;1.30;;;;;;;;;;5216409;27;20221;-14
2022/06/10 00:32:30;;;;;;;4.25;0.90;;;;;;;;;;5193736;27;20241;-14
2022/06/10 00:34:58;;;;;;;2.70;1.10;;;;;;;;;;5193397;27;20281;-14
2022/06/10 00:37:25;;;;;;;2.22;1.10;;;;;;;;;;5216404;27;20216;-14
2022/06/10 00:39:52;;;;;;;3.10;1.10;;;;;;;;;;5201005;27;20721;-15
2022/06/10 00:42:20;;;;;;;1.55;0.98;;;;;;;;;;5216551;27;21067;-14
2022/06/10 00:44:48;;;;;;;2.70;1.10;;;;;;;;;;5205585;27;20690;-15
2022/06/10 00:47:19;;;;;;;5.47;1.25;;;;;;;;;;5196922;27;20695;-14
2022/06/10 00:49:48;;;;;;;1.80;0.98;;;;;;;;;;5202338;27;20222;-14
2022/06/10 00:52:19;;;;;;;2.58;1.00;;;;;;;;;;5204502;27;20232;-14
2022/06/10 00:54:46;;;;;;;3.60;1.10;;;;;;;;;;5202103;27;20229;-13
2022/06/10 00:57:15;;;;;;;3.72;0.90;;;;;;;;;;5198709;27;20951;-14
2022/06/10 00:59:43;;;;;;;1.95;1.00;;;;;;;;;;5194719;27;20282;-14
2022/06/10 01:02:12;;;;;;;6.32;1.15;;;;;;;;;;5192639;27;20710;-14
2022/06/10 01:04:41;;;;;;;3.20;1.40;;;;;;;;;;5194058;27;20241;-14
2022/06/10 01:07:08;;;;;;;2.70;1.27;;;;;;;;;;5200092;27;20369;-12
2022/06/10 01:09:36;;;;;;;3.25;1.35;;;;;;;;;;5192235;27;20312;-14
2022/06/10 01:12:06;;;;;;;2.03;1.00;;;;;;;;;;5192070;27;20244;-14
2022/06/10 01:14:42;;;;;;;3.40;1.10;;;;;;;;;;5189539;27;20226;-14
2022/06/10 01:17:10;;;;;;;3.08;1.05;;;;;;;;;;5199518;27;20692;-13
2022/06/10 01:19:58;;;;;;;1.58;0.82;;;;;;;;;;5185304;27;20234;-14
2022/06/10 01:22:32;;;;;;;2.78;1.20;;;;;;;;;;5167631;27;20221;-14
2022/06/10 01:25:03;;;;;;;1.77;0.90;;;;;;;;;;5199002;27;20335;-14
2022/06/10 01:27:49;;;;;;;2.80;1.20;;;;;;;;;;5193390;27;20229;-15
2022/06/10 01:30:20;;;;;;;1.95;0.98;;;;;;;;;;5199010;27;20233;-14
2022/06/10 01:32:52;;;;;;;3.03;1.10;;;;;;;;;;5208366;27;20244;-14
2022/06/10 01:35:22;;;;;;;2.42;1.30;;;;;;;;;;5200843;27;20228;-14
2022/06/10 01:37:52;;;;;;;3.80;1.25;;;;;;;;;;5187540;27;20252;-13
2022/06/10 01:40:21;;;;;;;2.78;1.20;;;;;;;;;;5193786;27;20225;-14
2022/06/10 01:42:49;;;;;;;4.35;1.00;;;;;;;;;;5199731;27;20231;-14
2022/06/10 01:45:17;;;;;;;2.90;1.35;;;;;;;;;;5201431;27;20217;-15
2022/06/10 01:47:46;;;;;;;2.55;1.15;;;;;;;;;;5208961;27;20240;-15
2022/06/10 01:50:16;;;;;;;3.05;1.17;;;;;;;;;;5208168;27;20978;-13
2022/06/10 01:52:43;;;;;;;3.17;1.20;;;;;;;;;;5204226;27;20963;-15
2022/06/10 01:55:12;;;;;;;1.63;0.90;;;;;;;;;;5194103;27;20232;-14
2022/06/10 01:57:40;;;;;;;2.60;1.05;;;;;;;;;;5207865;27;20236;-13
2022/06/10 02:00:09;;;;;;;7.63;1.10;;;;;;;;;;5193031;27;20234;-12
2022/06/10 02:02:37;;;;;;;4.57;1.20;;;;;;;;;;5193287;27;20236;-14
2022/06/10 02:05:07;;;;;;;2.20;1.25;;;;;;;;;;5179274;27;20226;-15
2022/06/10 02:07:36;;;;;;;6.40;1.35;;;;;;;;;;5207452;27;20228;-13
2022/06/10 02:10:06;;;;;;;2.85;1.23;;;;;;;;;;5198166;27;20226;-13
2022/06/10 02:12:35;;;;;;;2.33;0.90;;;;;;;;;;5206785;27;20237;-14
2022/06/10 02:15:03;;;;;;;4.35;1.30;;;;;;;;;;5202834;27;20229;-14
2022/06/10 02:17:32;;;;;;;4.05;1.20;;;;;;;;;;5198610;27;20244;-14
2022/06/10 02:20:00;;;;;;;1.67;0.90;;;;;;;;;;5202914;27;20224;-14
2022/06/10 02:22:28;;;;;;;3.15;1.05;;;;;;;;;;5214657;27;20224;-14
2022/06/10 02:24:58;;;;;;;2.33;1.13;;;;;;;;;;5206989;27;20947;-14
2022/06/10 02:27:26;;;;;;;1.85;0.90;;;;;;;;;;5205262;27;20236;-14
2022/06/10 02:29:54;;;;;;;3.05;1.23;;;;;;;;;;5206843;27;20600;-14
2022/06/10 02:32:27;;;;;;;1.70;1.15;;;;;;;;;;5197364;27;20229;-14
2022/06/10 02:34:55;;;;;;;2.72;1.35;;;;;;;;;;5205074;27;20220;-13
2022/06/10 02:37:23;;;;;;;2.72;1.20;;;;;;;;;;5215977;27;20221;-14
2022/06/10 02:39:59;;;;;;;4.38;1.33;;;;;;;;;;5194215;27;20236;-14
2022/06/10 02:42:30;;;;;;;2.58;1.17;;;;;;;;;;5212364;27;20234;-14
2022/06/10 02:45:00;;;;;;;6.35;1.60;;;;;;;;;;5195379;27;20721;-14
2022/06/10 02:47:28;;;;;;;1.98;1.10;;;;;;;;;;5187127;27;20233;-14
2022/06/10 02:49:56;;;;;;;2.78;1.30;;;;;;;;;;5198501;27;20699;-15
2022/06/10 02:52:25;;;;;;;5.57;1.67;;;;;;;;;;5196685;27;20692;-14
2022/06/10 02:54:52;;;;;;;2.40;1.33;;;;;;;;;;5199218;27;20237;-15
2022/06/10 02:57:20;;;;;;;1.63;1.00;;;;;;;;;;5197196;27;20232;-14
2022/06/10 03:02:37;;;;;;;2.08;1.23;;;;;;;;;;5196246;27;20284;-14
2022/06/10 03:05:11;;;;;;;2.90;1.40;;;;;;;;;;5195722;27;20233;-14
2022/06/10 03:07:43;;;;;;;3.33;1.35;;;;;;;;;;5196612;27;20233;-15
2022/06/10 03:10:13;;;;;;;2.97;1.23;;;;;;;;;;5200457;27;20225;-14
2022/06/10 03:12:54;;;;;;;1.75;1.08;;;;;;;;;;5207075;27;20256;-15
2022/06/10 03:15:27;;;;;;;2.35;1.10;;;;;;;;;;5194111;27;20584;-14
2022/06/10 03:17:57;;;;;;;3.17;1.40;;;;;;;;;;5187023;27;20282;-14
2022/06/10 03:20:26;;;;;;;2.20;1.20;;;;;;;;;;5196537;27;20243;-14
2022/06/10 03:22:59;;;;;;;3.42;1.50;;;;;;;;;;5196265;27;20225;-14
2022/06/10 03:25:31;;;;;;;4.07;1.45;;;;;;;;;;5199076;27;20675;-14
2022/06/10 03:28:00;;;;;;;2.92;1.42;;;;;;;;;;5202723;27;21103;-14
2022/06/10 03:30:31;;;;;;;4.13;1.60;;;;;;;;;;5215750;27;20236;-14
2022/06/10 03:32:59;;;;;;;3.80;1.63;;;;;;;;;;5217447;27;20244;-14
2022/06/10 03:35:27;;;;;;;1.67;1.30;;;;;;;;;;5209622;27;20230;-14
2022/06/10 03:37:57;;;;;;;3.00;1.48;;;;;;;;;;5195751;27;20261;-14
2022/06/10 03:40:25;;;;;;;3.40;1.60;;;;;;;;;;5196295;27;20225;-14
2022/06/10 03:42:53;;;;;;;2.97;1.58;;;;;;;;;;5217300;27;21073;-14
2022/06/10 03:45:22;;;;;;;3.80;1.48;;;;;;;;;;5206095;27;20698;-14
2022/06/10 03:47:50;;;;;;;2.47;1.40;;;;;;;;;;5209419;27;20267;-13
2022/06/10 03:50:19;;;;;;;8.50;1.80;;;;;;;;;;5195083;27;20225;-14
2022/06/10 03:52:47;;;;;;;2.50;1.65;;;;;;;;;;5214089;27;20227;-14
2022/06/10 03:55:15;;;;;;;2.42;1.65;;;;;;;;;;5209096;27;21039;-15
2022/06/10 03:57:43;;;;;;;3.70;1.83;;;;;;;;;;5211433;27;21063;-14
2022/06/10 04:00:13;;;;;;;2.95;1.52;;;;;;;;;;5201934;27;20228;-14
2022/06/10 04:02:40;;;;;;;3.60;1.75;;;;;;;;;;5196016;27;20237;-14
2022/06/10 04:05:10;;;;;;;2.35;1.67;;;;;;;;;;5216500;27;20213;-14
2022/06/10 04:07:38;;;;;;;5.80;2.00;;;;;;;;;;5217222;27;20228;-14
2022/06/10 04:10:05;;;;;;;3.78;1.77;;;;;;;;;;5199789;27;20229;-14
2022/06/10 04:12:33;;;;;;;3.35;1.70;;;;;;;;;;5195703;27;20225;-11
2022/06/10 04:15:00;;;;;;;3.65;2.28;;;;;;;;;;5194943;27;20243;-13
2022/06/10 04:17:28;;;;;;;2.90;2.03;;;;;;;;;;5185491;27;20721;-14
2022/06/10 04:19:57;;;;;;;4.90;2.30;;;;;;;;;;5195181;27;20229;-15
2022/06/10 04:22:25;;;;;;;9.90;2.20;;;;;;;;;;5194792;27;20598;-15
2022/06/10 04:24:53;;;;;;;7.05;2.42;;;;;;;;;;5195223;27;20265;-14
2022/06/10 04:27:20;;;;;;;3.83;2.33;;;;;;;;;;5195089;27;20232;-14
2022/06/10 04:29:47;;;;;;;4.72;2.50;;;;;;;;;;5205762;27;20232;-14
2022/06/10 04:32:15;;;;;;;4.20;2.00;;;;;;;;;;5196039;27;20221;-15
2022/06/10 04:34:42;;;;;;;4.43;2.15;;;;;;;;;;5194899;27;20237;-14
2022/06/10 04:37:10;;;;;;;3.75;2.42;;;;;;;;;;5194161;27;20229;-15
2022/06/10 04:39:38;;;;;;;3.25;1.80;;;;;;;;;;5194477;27;20265;-12
2022/06/10 04:42:06;;;;;;;2.83;1.98;;;;;;;;;;5192153;27;20237;-14
2022/06/10 04:44:33;;;;;;;5.45;2.28;;;;;;;;;;5193798;27;20278;-14
2022/06/10 04:47:02;;;;;;;5.57;2.30;;;;;;;;;;5192814;27;20327;-13
2022/06/10 04:49:30;;;;;;;6.82;2.30;;;;;;;;;;5189297;27;20548;-14
2022/06/10 04:51:57;;;;;;;6.25;2.40;;;;;;;;;;5194423;27;20222;-14
2022/06/10 04:54:25;;;;;;;5.05;2.25;;;;;;;;;;5190975;27;20241;-13
2022/06/10 04:56:53;;;;;;;3.75;2.13;;;;;;;;;;5192106;27;20232;-14
2022/06/10 04:59:21;;;;;;;5.40;1.98;;;;;;;;;;5188855;27;20229;-14
2022/06/10 05:01:48;;;;;;;5.97;2.30;;;;;;;;;;5191544;27;20241;-14
2022/06/10 05:04:16;;;;;;;4.28;2.40;;;;;;;;;;5194588;27;20247;-14
2022/06/10 05:06:44;;;;;;;7.15;2.42;;;;;;;;;;5193140;27;20248;-14
2022/06/10 05:09:17;;;;;;;4.90;2.35;;;;;;;;;;5194224;27;20221;-14
2022/06/10 05:11:45;;;;;;;5.30;2.13;;;;;;;;;;5193806;27;20221;-14
2022/06/10 05:14:13;;;;;;;7.07;2.58;;;;;;;;;;5194290;27;20260;-14
2022/06/10 05:16:41;;;;;;;7.28;2.40;;;;;;;;;;5184944;27;20255;-13
2022/06/10 05:19:08;;;;;;;6.15;2.78;;;;;;;;;;5193707;27;20688;-13
2022/06/10 05:21:36;;;;;;;5.80;2.40;;;;;;;;;;5190926;27;20692;-14
2022/06/10 05:24:03;;;;;;;4.63;2.40;;;;;;;;;;5193582;27;20252;-14
2022/06/10 05:26:32;;;;;;;8.00;2.42;;;;;;;;;;5194469;27;20224;-13
2022/06/10 05:29:00;;;;;;;6.47;2.20;;;;;;;;;;5193554;27;20236;-14
2022/06/10 05:31:28;;;;;;;7.38;2.65;;;;;;;;;;5192904;27;20994;-14
2022/06/10 05:36:41;;;;;;;8.65;2.60;;;;;;;;;;5184585;27;20243;-14
2022/06/10 05:39:08;;;;;;;6.43;2.60;;;;;;;;;;5183302;27;20232;-14
2022/06/10 05:44:21;;;;;;;8.45;2.50;;;;;;;;;;5193912;27;20229;-12
2022/06/10 05:46:50;;;;;;;6.13;2.28;;;;;;;;;;5194494;27;20243;-14
2022/06/10 05:49:17;;;;;;;6.18;2.35;;;;;;;;;;5196639;27;20248;-14
2022/06/10 05:51:44;;;;;;;9.50;3.88;;;;;;;;;;5197985;27;20225;-14
2022/06/10 05:54:12;;;;;;;19.83;6.45;;;;;;;;;;5193705;27;20259;-14
2022/06/10 05:56:40;;;;;;;17.15;6.65;;;;;;;;;;5187430;27;20841;-14
2022/06/10 05:59:07;;;;;;;21.70;7.93;;;;;;;;;;5195769;27;20931;-14
2022/06/10 06:01:35;;;;;;;17.30;7.20;;;;;;;;;;5188715;27;20232;-13
2022/06/10 06:04:04;;;;;;;29.48;10.70;;;;;;;;;;5199572;27;20232;-14
2022/06/10 06:06:31;;;;;;;28.75;9.02;;;;;;;;;;5194354;27;20248;-14
2022/06/10 06:08:59;;;;;;;19.88;8.13;;;;;;;;;;5200606;27;20317;-14
2022/06/10 06:11:26;;;;;;;24.88;6.68;;;;;;;;;;5193235;27;20226;-14
2022/06/10 06:13:53;;;;;;;14.77;6.18;;;;;;;;;;5196405;27;20229;-13
2022/06/10 06:16:21;;;;;;;14.90;6.25;;;;;;;;;;5187626;27;20668;-13
2022/06/10 06:18:50;;;;;;;14.68;5.65;;;;;;;;;;5195879;27;20236;-14
2022/06/10 06:21:19;;;;;;;14.75;5.28;;;;;;;;;;5189318;27;20225;-14
2022/06/10 06:23:49;;;;;;;14.10;5.38;;;;;;;;;;5188097;27;20233;-13
2022/06/10 06:26:16;;;;;;;10.60;4.32;;;;;;;;;;5195651;27;20237;-13
2022/06/10 06:28:43;;;;;;;15.85;4.80;;;;;;;;;;5188240;27;20233;-14
2022/06/10 06:31:11;;;;;;;11.25;4.70;;;;;;;;;;5192685;27;20240;-14
2022/06/10 06:33:38;;;;;;;14.63;3.53;;;;;;;;;;5187831;27;20332;-14
2022/06/10 06:36:06;;;;;;;13.02;3.95;;;;;;;;;;5196878;27;20229;-15
2022/06/10 06:38:35;;;;;;;11.02;3.55;;;;;;;;;;5194084;27;20225;-14
2022/06/10 06:41:02;;;;;;;8.52;3.58;;;;;;;;;;5189876;27;20237;-14
2022/06/10 06:43:30;;;;;;;9.50;3.33;;;;;;;;;;5194248;27;20236;-14
2022/06/10 06:45:58;;;;;;;12.27;3.53;;;;;;;;;;5190165;27;20230;-14
2022/06/10 06:48:25;;;;;;;6.55;2.90;;;;;;;;;;5195941;27;20294;-13
2022/06/10 06:50:52;;;;;;;5.10;2.60;;;;;;;;;;5191712;27;20224;-12
2022/06/10 06:53:20;;;;;;;9.18;2.88;;;;;;;;;;5196143;27;20233;-13
2022/06/10 06:55:49;;;;;;;8.27;3.17;;;;;;;;;;5195337;27;20233;-13
2022/06/10 06:58:17;;;;;;;9.27;2.70;;;;;;;;;;5197018;27;20233;-14
2022/06/10 07:00:46;;;;;;;6.45;2.83;;;;;;;;;;5193377;27;20320;-13
2022/06/10 07:03:13;;;;;;;9.55;2.63;;;;;;;;;;5196540;27;20260;-14
2022/06/10 07:05:42;;;;;;;6.88;2.40;;;;;;;;;;5195816;27;22134;-15
2022/06/10 07:08:09;;;;;;;6.78;2.42;;;;;;;;;;5195464;27;20237;-12
2022/06/10 07:10:37;;;;;;;8.25;2.50;;;;;;;;;;5196329;27;20226;-14
2022/06/10 07:13:06;;;;;;;10.95;3.00;;;;;;;;;;5196463;27;20228;-15
2022/06/10 07:15:37;;;;;;;7.15;2.03;;;;;;;;;;5194283;27;21084;-13
2022/06/10 07:18:04;;;;;;;9.02;2.10;;;;;;;;;;5195740;27;20225;-13
2022/06/10 07:20:32;;;;;;;6.57;2.13;;;;;;;;;;5195883;27;20226;-14
2022/06/10 07:23:00;;;;;;;7.50;2.38;;;;;;;;;;5193673;27;21130;-14
2022/06/10 07:25:27;;;;;;;17.67;2.60;;;;;;;;;;5187448;27;20526;-15
2022/06/10 07:27:55;;;;;;;9.38;2.90;;;;;;;;;;5195960;27;21326;-15
2022/06/10 07:30:24;;;;;;;10.43;2.55;;;;;;;;;;5192926;27;20233;-14
2022/06/10 07:32:52;;;;;;;8.95;2.75;;;;;;;;;;5197733;27;20733;-15
2022/06/10 07:35:20;;;;;;;9.45;2.42;;;;;;;;;;5192250;27;20238;-15
2022/06/10 07:37:48;;;;;;;12.88;2.50;;;;;;;;;;5195524;27;20231;-15
2022/06/10 07:41:56;;;;;;;12.98;2.47;;;;;;;;;;5194774;27;20221;-15
2022/06/10 07:43:24;;;;;;;8.95;2.30;;;;;;;;;;5200338;27;20244;-14
2022/06/10 07:45:53;;;;;;;10.98;2.13;;;;;;;;;;5191405;27;20228;-13
2022/06/10 07:48:20;;;;;;;7.00;2.40;;;;;;;;;;5191545;27;20419;-15
2022/06/10 07:50:47;;;;;;;5.45;2.88;;;;;;;;;;5195749;27;20233;-15
2022/06/10 07:53:15;;;;;;;5.95;2.40;;;;;;;;;;5194925;27;20218;-15
2022/06/10 07:55:44;;;;;;;8.35;2.53;;;;;;;;;;5195728;27;20895;-15
2022/06/10 07:58:11;;;;;;;9.82;2.42;;;;;;;;;;5196066;27;20229;-15
2022/06/10 08:00:39;;;;;;;8.07;2.05;;;;;;;;;;5193712;27;20228;-13
2022/06/10 08:03:07;;;;;;;3.90;1.90;;;;;;;;;;5192491;27;21060;-15
2022/06/10 08:05:36;;;;;;;5.43;2.78;;;;;;;;;;5194699;27;20281;-15
2022/06/10 08:08:04;;;;;;;9.48;2.67;;;;;;;;;;5197193;27;20790;-15
2022/06/10 08:10:32;;;;;;;8.18;2.70;;;;;;;;;;5193662;27;20227;-16
2022/06/10 08:13:00;;;;;;;11.10;2.90;;;;;;;;;;5194146;27;20225;-15
2022/06/10 08:15:27;;;;;;;6.85;2.33;;;;;;;;;;5193486;27;20240;-16
2022/06/10 08:17:56;;;;;;;8.07;2.20;;;;;;;;;;5191036;27;20240;-13
2022/06/10 08:22:32;;;;;;;6.90;2.53;;;;;;;;;;5194195;27;20875;-16
2022/06/10 08:23:11;;;;;;;11.15;2.38;;;;;;;;;;5192190;27;20107;-15
2022/06/10 08:25:39;;;;;;;6.90;2.40;;;;;;;;;;5194134;27;20225;-16
2022/06/10 08:28:06;;;;;;;7.07;2.40;;;;;;;;;;5192591;27;20259;-15
2022/06/10 08:30:34;;;;;;;5.10;2.20;;;;;;;;;;5189798;27;20700;-15
2022/06/10 08:33:03;;;;;;;7.40;2.30;;;;;;;;;;5188538;27;20415;-15
2022/06/10 08:35:32;;;;;;;7.93;2.30;;;;;;;;;;5187620;27;20241;-15
2022/06/10 08:37:59;;;;;;;8.65;2.40;;;;;;;;;;5193867;27;20236;-15
2022/06/10 08:40:29;;;;;;;8.23;2.40;;;;;;;;;;5194223;27;20221;-15
2022/06/10 08:42:57;;;;;;;7.65;2.50;;;;;;;;;;5194431;27;20226;-15
2022/06/10 08:45:27;;;;;;;6.30;1.98;;;;;;;;;;5193201;27;20236;-15
2022/06/10 08:47:59;;;;;;;11.38;2.47;;;;;;;;;;5192388;27;20229;-14
2022/06/10 08:50:29;;;;;;;6.55;1.88;;;;;;;;;;5187742;27;20451;-15
2022/06/10 08:53:01;;;;;;;7.38;2.05;;;;;;;;;;5187584;27;20228;-15
2022/06/10 08:55:33;;;;;;;5.22;1.65;;;;;;;;;;5183834;27;20300;-16
2022/06/10 08:58:02;;;;;;;11.05;2.17;;;;;;;;;;5180678;27;20229;-15
2022/06/10 09:00:30;;;;;;;6.07;1.65;;;;;;;;;;5183967;27;20377;-16
2022/06/10 09:02:59;;;;;;;5.60;1.90;;;;;;;;;;5184681;27;20263;-14
2022/06/10 09:05:28;;;;;;;6.10;1.60;;;;;;;;;;5184581;27;20710;-14
2022/06/10 09:07:56;;;;;;;6.20;1.80;;;;;;;;;;5186867;27;20890;-15
2022/06/10 09:10:26;;;;;;;8.95;1.80;;;;;;;;;;5190142;27;20229;-16
2022/06/10 09:13:00;;;;;;;6.18;2.03;;;;;;;;;;5182276;27;20229;-14
2022/06/10 09:15:28;;;;;;;4.38;1.35;;;;;;;;;;5188694;27;20228;-15
2022/06/10 09:17:56;;;;;;;4.90;1.60;;;;;;;;;;5184184;27;21028;-14
2022/06/10 09:20:24;;;;;;;7.30;1.60;;;;;;;;;;5185181;27;20517;-15
2022/06/10 09:22:52;;;;;;;5.78;1.92;;;;;;;;;;5185934;27;20233;-15
2022/06/10 09:25:22;;;;;;;7.55;2.15;;;;;;;;;;5184020;27;21003;-15
2022/06/10 09:27:52;;;;;;;5.03;1.55;;;;;;;;;;5188078;27;20222;-14
2022/06/10 09:30:19;;;;;;;4.00;1.38;;;;;;;;;;5188529;27;20233;-16
2022/06/10 09:32:49;;;;;;;5.55;1.70;;;;;;;;;;5190506;27;20233;-15
2022/06/10 09:35:38;;;;;;;3.55;1.90;;;;;;;;;;5181077;27;20237;-15
2022/06/10 09:38:07;;;;;;;5.18;1.60;;;;;;;;;;5185655;27;20314;-14
2022/06/10 09:40:39;;;;;;;5.60;1.60;;;;;;;;;;5194045;27;20256;-15
2022/06/10 09:43:20;;;;;;;4.68;1.80;;;;;;;;;;5183601;27;20366;-15
2022/06/10 09:45:48;;;;;;;6.80;1.77;;;;;;;;;;5182073;27;20240;-14
2022/06/10 09:48:20;;;;;;;4.82;1.60;;;;;;;;;;5193419;27;20249;-15
2022/06/10 09:50:49;;;;;;;4.95;1.65;;;;;;;;;;5190570;27;21196;-14
2022/06/10 09:53:29;;;;;;;17.20;2.25;;;;;;;;;;5193352;27;20640;-15
2022/06/10 09:56:00;;;;;;;16.05;1.95;;;;;;;;;;5177037;27;20607;-15
2022/06/10 09:58:39;;;;;;;20.35;1.60;;;;;;;;;;5191728;27;20225;-16
2022/06/10 10:01:10;;;;;;;8.50;1.80;;;;;;;;;;5187483;27;20237;-15
2022/06/10 10:03:41;;;;;;;10.43;1.63;;;;;;;;;;5193005;27;20319;-13
2022/06/10 10:06:14;;;;;;;4.00;1.30;;;;;;;;;;5186468;27;20265;-15
2022/06/10 10:08:44;;;;;;;5.88;1.60;;;;;;;;;;5186265;27;20230;-15
2022/06/10 10:11:14;;;;;;;5.03;1.70;;;;;;;;;;5186509;27;20238;-15
2022/06/10 10:13:48;;;;;;;8.65;1.70;;;;;;;;;;5193096;27;20221;-16
2022/06/10 10:16:20;;;;;;;7.80;1.73;;;;;;;;;;5189026;27;20245;-15
2022/06/10 10:18:50;;;;;;;5.70;1.75;;;;;;;;;;5199190;27;20232;-12
2022/06/10 10:21:19;;;;;;;9.82;1.88;;;;;;;;;;5192143;27;20233;-15
2022/06/10 10:23:47;;;;;;;16.33;3.08;;;;;;;;;;5197188;27;20267;-14
2022/06/10 10:26:19;;;;;;;13.77;2.90;;;;;;;;;;5188688;27;20229;-15
2022/06/10 10:28:49;;;;;;;16.83;2.13;;;;;;;;;;5192816;27;20229;-14
2022/06/10 10:31:17;;;;;;;25.02;3.92;;;;;;;;;;5178184;27;20238;-13
2022/06/10 10:33:44;;;;;;;11.48;2.85;;;;;;;;;;5188106;27;21005;-15
2022/06/10 10:36:13;;;;;;;22.55;3.95;;;;;;;;;;5187676;27;20233;-15
2022/06/10 10:38:42;;;;;;;16.55;3.03;;;;;;;;;;5186095;27;20233;-13
2022/06/10 10:41:14;;;;;;;16.52;3.33;;;;;;;;;;5191196;27;20820;-15
2022/06/10 10:43:41;;;;;;;14.55;3.05;;;;;;;;;;5188053;27;20233;-16
2022/06/10 10:46:25;;;;;;;12.35;2.20;;;;;;;;;;5183330;27;21578;-14
2022/06/10 10:48:52;;;;;;;13.13;2.70;;;;;;;;;;5183320;27;20340;-15
2022/06/10 10:51:20;;;;;;;16.77;3.03;;;;;;;;;;5188817;27;20229;-14
2022/06/10 10:54:12;;;;;;;8.65;2.60;;;;;;;;;;5187554;27;20228;-14
2022/06/10 10:56:40;;;;;;;10.32;2.25;;;;;;;;;;5181800;27;20279;-15
2022/06/10 10:59:16;;;;;;;7.05;2.08;;;;;;;;;;5187472;27;20230;-15
2022/06/10 11:01:47;;;;;;;6.90;1.95;;;;;;;;;;5183455;27;20639;-14
2022/06/10 11:04:16;;;;;;;8.00;2.00;;;;;;;;;;5186551;27;20264;-14
2022/06/10 11:06:43;;;;;;;8.07;2.10;;;;;;;;;;5182747;27;20230;-15
2022/06/10 11:09:15;;;;;;;6.25;1.90;;;;;;;;;;5188802;27;20232;-15
2022/06/10 11:11:42;;;;;;;3.70;1.67;;;;;;;;;;5181887;27;20233;-15
2022/06/10 11:14:18;;;;;;;5.55;1.90;;;;;;;;;;5189303;27;20787;-15
2022/06/10 11:17:16;;;;;;;5.40;1.48;;;;;;;;;;5187978;27;20269;-15
2022/06/10 11:19:46;;;;;;;6.50;2.13;;;;;;;;;;5103898;27;20422;-16
2022/06/10 11:22:23;;;;;;;4.15;1.63;;;;;;;;;;5170264;27;20229;-15
2022/06/10 11:24:52;;;;;;;11.30;2.25;;;;;;;;;;5187428;27;20490;-14
2022/06/10 11:27:21;;;;;;;9.37;2.23;;;;;;;;;;5190508;27;20427;-15
2022/06/10 11:29:57;;;;;;;6.25;2.47;;;;;;;;;;5189379;27;20251;-13
2022/06/10 11:32:25;;;;;;;12.20;2.40;;;;;;;;;;5190889;27;20229;-16
2022/06/10 11:35:02;;;;;;;5.97;1.58;;;;;;;;;;5187312;27;21002;-15
2022/06/10 11:37:30;;;;;;;10.52;2.00;;;;;;;;;;5191295;27;20613;-15
2022/06/10 11:39:59;;;;;;;5.90;1.98;;;;;;;;;;5188082;27;20233;-16
2022/06/10 11:42:31;;;;;;;9.88;2.13;;;;;;;;;;5185892;27;21009;-15
2022/06/10 11:45:01;;;;;;;7.47;1.80;;;;;;;;;;5186883;27;20233;-15
2022/06/10 11:47:30;;;;;;;8.73;2.45;;;;;;;;;;5191708;27;20314;-15
2022/06/10 11:49:58;;;;;;;9.48;2.58;;;;;;;;;;5186669;27;20229;-13
2022/06/10 11:52:27;;;;;;;8.55;2.45;;;;;;;;;;5191525;27;21051;-15
2022/06/10 11:54:56;;;;;;;10.60;2.80;;;;;;;;;;5188655;27;21263;-13
2022/06/10 12:00:13;;;;;;;8.43;2.63;;;;;;;;;;5190561;27;20234;-16
2022/06/10 12:02:41;;;;;;;12.18;2.58;;;;;;;;;;5190189;27;20463;-15
2022/06/10 12:05:15;;;;;;;16.65;3.47;;;;;;;;;;5193853;27;20233;-16
2022/06/10 12:07:47;;;;;;;12.10;2.80;;;;;;;;;;5194125;27;20236;-16
2022/06/10 12:10:15;;;;;;;12.40;3.25;;;;;;;;;;5195893;27;20229;-16
2022/06/10 12:12:43;;;;;;;9.00;2.88;;;;;;;;;;5194750;27;21057;-16
2022/06/10 12:15:16;;;;;;;5.60;2.45;;;;;;;;;;5193927;27;20221;-15
2022/06/10 12:17:44;;;;;;;7.85;2.40;;;;;;;;;;5192894;27;20259;-15
2022/06/10 12:20:12;;;;;;;8.05;2.95;;;;;;;;;;5195451;27;20225;-16
2022/06/10 12:22:39;;;;;;;6.55;2.40;;;;;;;;;;5195490;27;20988;-15
2022/06/10 12:25:14;;;;;;;9.52;2.53;;;;;;;;;;5194311;27;20253;-14
2022/06/10 12:27:43;;;;;;;8.32;2.65;;;;;;;;;;5192101;27;20224;-14
2022/06/10 12:30:11;;;;;;;6.03;2.33;;;;;;;;;;5194565;27;20229;-14
2022/06/10 12:32:39;;;;;;;8.50;3.10;;;;;;;;;;5192397;27;20233;-14
2022/06/10 12:35:09;;;;;;;8.02;3.10;;;;;;;;;;5194450;27;20225;-15
2022/06/10 12:37:38;;;;;;;5.60;2.67;;;;;;;;;;5194357;27;20264;-15
2022/06/10 12:40:06;;;;;;;6.68;2.45;;;;;;;;;;5193327;27;20283;-15
2022/06/10 12:42:40;;;;;;;8.32;3.03;;;;;;;;;;5195005;27;20229;-15
2022/06/10 12:45:11;;;;;;;10.02;2.83;;;;;;;;;;5193133;27;20221;-15
2022/06/10 12:47:38;;;;;;;6.65;2.25;;;;;;;;;;5181928;27;20235;-16
2022/06/10 12:50:16;;;;;;;6.22;2.35;;;;;;;;;;5194725;27;20272;-16
2022/06/10 12:52:49;;;;;;;7.43;2.40;;;;;;;;;;5183056;27;20218;-15
2022/06/10 12:55:18;;;;;;;8.63;3.03;;;;;;;;;;5194767;27;20694;-15
2022/06/10 12:57:47;;;;;;;6.00;2.35;;;;;;;;;;5181374;27;20221;-15
2022/06/10 13:00:33;;;;;;;5.72;2.65;;;;;;;;;;5179454;27;20285;-16
2022/06/10 13:03:15;;;;;;;8.13;2.83;;;;;;;;;;5173643;27;20230;-16
2022/06/10 13:05:43;;;;;;;8.05;2.85;;;;;;;;;;5191515;27;20903;-16
2022/06/10 13:08:26;;;;;;;8.65;2.75;;;;;;;;;;5194929;27;20280;-14
2022/06/10 13:10:55;;;;;;;8.13;3.13;;;;;;;;;;5193104;27;20229;-14
2022/06/10 13:13:24;;;;;;;6.45;3.03;;;;;;;;;;5184628;27;20229;-16
2022/06/10 13:15:52;;;;;;;7.72;3.00;;;;;;;;;;5180016;27;20337;-15
2022/06/10 13:18:37;;;;;;;10.25;2.90;;;;;;;;;;5194576;27;20233;-16
2022/06/10 13:21:06;;;;;;;7.13;3.03;;;;;;;;;;5193811;27;20233;-15
2022/06/10 13:23:34;;;;;;;8.13;3.10;;;;;;;;;;5194301;27;20229;-15
2022/06/10 13:26:14;;;;;;;5.70;2.90;;;;;;;;;;5192286;27;20605;-15
2022/06/10 13:28:43;;;;;;;5.43;2.42;;;;;;;;;;5184108;27;20620;-15
2022/06/10 13:31:18;;;;;;;7.22;2.67;;;;;;;;;;5185060;27;20227;-12
2022/06/10 13:33:54;;;;;;;7.75;3.33;;;;;;;;;;5194211;27;20221;-15
2022/06/10 13:36:21;;;;;;;6.93;2.72;;;;;;;;;;5194310;27;20652;-15
2022/06/10 13:38:49;;;;;;;7.50;3.08;;;;;;;;;;5183205;27;20617;-16
2022/06/10 13:44:14;;;;;;;12.20;3.17;;;;;;;;;;5194513;27;20233;-16
2022/06/10 13:46:41;;;;;;;6.60;2.83;;;;;;;;;;5189734;27;20269;-15
2022/06/10 13:49:12;;;;;;;7.55;3.00;;;;;;;;;;5190846;27;20706;-15
2022/06/10 13:51:45;;;;;;;5.97;2.72;;;;;;;;;;5193522;27;20281;-15
2022/06/10 13:54:17;;;;;;;7.40;3.28;;;;;;;;;;5192472;27;20221;-16
2022/06/10 13:56:45;;;;;;;7.97;3.20;;;;;;;;;;5194116;27;20240;-14
2022/06/10 13:59:22;;;;;;;7.88;3.55;;;;;;;;;;5193982;27;20229;-16
2022/06/10 14:01:50;;;;;;;4.80;3.05;;;;;;;;;;5189918;27;20222;-15
2022/06/10 14:04:19;;;;;;;8.13;3.60;;;;;;;;;;5192783;27;20324;-16
2022/06/10 14:06:47;;;;;;;7.90;3.00;;;;;;;;;;5190200;27;20988;-15
2022/06/10 14:09:16;;;;;;;6.18;3.17;;;;;;;;;;5194391;27;20718;-16
2022/06/10 14:11:44;;;;;;;6.90;3.15;;;;;;;;;;5197340;27;20226;-16
2022/06/10 14:14:15;;;;;;;8.23;3.03;;;;;;;;;;5196765;27;20225;-15
2022/06/10 14:17:00;;;;;;;5.55;2.92;;;;;;;;;;5191564;27;20232;-15
2022/06/10 14:19:27;;;;;;;6.03;2.90;;;;;;;;;;5194442;27;21267;-15
2022/06/10 14:21:54;;;;;;;8.82;3.40;;;;;;;;;;5197342;27;20221;-16
2022/06/10 14:24:23;;;;;;;10.95;3.58;;;;;;;;;;5197228;27;20233;-15
2022/06/10 14:26:51;;;;;;;6.00;2.67;;;;;;;;;;5196527;27;20221;-13
2022/06/10 14:29:19;;;;;;;6.68;3.08;;;;;;;;;;5197327;27;20235;-15
2022/06/10 14:31:47;;;;;;;7.05;3.53;;;;;;;;;;5190328;27;20590;-15
2022/06/10 14:34:18;;;;;;;8.20;2.95;;;;;;;;;;5196795;27;20226;-15
2022/06/10 14:36:49;;;;;;;6.63;3.05;;;;;;;;;;5196452;27;20244;-12
2022/06/10 14:39:18;;;;;;;7.03;3.33;;;;;;;;;;5197139;27;20672;-15
2022/06/10 14:41:52;;;;;;;6.28;3.22;;;;;;;;;;5197764;27;20259;-15
2022/06/10 14:44:20;;;;;;;6.57;3.33;;;;;;;;;;5183653;27;20260;-16
2022/06/10 14:47:07;;;;;;;5.55;2.95;;;;;;;;;;5178977;27;20229;-14
2022/06/10 14:49:40;;;;;;;5.25;2.92;;;;;;;;;;5206124;27;20229;-16
2022/06/10 14:52:09;;;;;;;6.35;3.40;;;;;;;;;;5196944;27;21048;-16
2022/06/10 14:54:37;;;;;;;6.47;3.22;;;;;;;;;;5196816;27;20226;-15
2022/06/10 14:57:05;;;;;;;6.85;3.38;;;;;;;;;;5196609;27;20237;-15
2022/06/10 14:59:33;;;;;;;6.25;3.13;;;;;;;;;;5195742;27;20591;-14
2022/06/10 15:02:01;;;;;;;8.10;3.50;;;;;;;;;;5192243;27;20228;-16
2022/06/10 15:04:28;;;;;;;6.68;3.25;;;;;;;;;;5186623;27;20266;-15
2022/06/10 15:07:17;;;;;;;11.27;3.22;;;;;;;;;;5194606;27;20241;-15
2022/06/10 15:09:44;;;;;;;7.75;3.38;;;;;;;;;;5188537;27;20245;-15